sensor_id;sensor_type;location;lat;lon;timestamp;temperature;humidity
24408;DHT22;12542;50.924;4.516;2023-02-18T00:01:27;13.00;99.90
24408;DHT22;12542;50.924;4.516;2023-02-18T00:03:54;13.00;99.90
24408;DHT22;12542;50.924;4.516;2023-02-18T00:06:21;13.00;99.90
24408;DHT22;12542;50.924;4.516;2023-02-18T00:08:48;12.90;99.90
24408;DHT22;12542;50.924;4.516;2023-02-18T00:11:14;12.90;99.90
24408;DHT22;12542;50.924;4.516;2023-02-18T00:13:41;12.80;99.90
24408;DHT22;12542;50.924;4.516;2023-02-18T00:16:10;12.90;99.90
24408;DHT22;12542;50.924;4.516;2023-02-18T00:18:36;13.00;99.90
24408;DHT22;12542;50.924;4.516;2023-02-18T00:21:04;13.00;99.90
24408;DHT22;12542;50.924;4.516;2023-02-18T00:23:30;13.00;99.90
24408;DHT22;12542;50.924;4.516;2023-02-18T00:26:14;13.00;99.90
24408;DHT22;12542;50.924;4.516;2023-02-18T00:28:40;13.00;99.90
24408;DHT22;12542;50.924;4.516;2023-02-18T00:31:12;12.90;99.90
24408;DHT22;12542;50.924;4.516;2023-02-18T00:33:38;13.00;99.90
24408;DHT22;12542;50.924;4.516;2023-02-18T00:36:06;13.00;99.90
24408;DHT22;12542;50.924;4.516;2023-02-18T00:38:32;13.00;99.90
24408;DHT22;12542;50.924;4.516;2023-02-18T00:40:58;12.80;99.90
24408;DHT22;12542;50.924;4.516;2023-02-18T00:43:24;12.70;99.90
24408;DHT22;12542;50.924;4.516;2023-02-18T00:45:50;12.70;99.90
24408;DHT22;12542;50.924;4.516;2023-02-18T00:48:16;12.80;99.90
24408;DHT22;12542;50.924;4.516;2023-02-18T00:50:42;12.80;99.90
24408;DHT22;12542;50.924;4.516;2023-02-18T00:53:07;12.80;99.90
24408;DHT22;12542;50.924;4.516;2023-02-18T00:55:43;12.80;99.90
24408;DHT22;12542;50.924;4.516;2023-02-18T00:58:09;12.80;99.90
24408;DHT22;12542;50.924;4.516;2023-02-18T01:00:35;12.80;99.90
24408;DHT22;12542;50.924;4.516;2023-02-18T01:03:01;12.80;99.90
24408;DHT22;12542;50.924;4.516;2023-02-18T01:05:27;12.90;99.90
24408;DHT22;12542;50.924;4.516;2023-02-18T01:07:53;12.70;99.90
24408;DHT22;12542;50.924;4.516;2023-02-18T01:10:20;12.70;99.90
24408;DHT22;12542;50.924;4.516;2023-02-18T01:12:48;12.70;99.90
24408;DHT22;12542;50.924;4.516;2023-02-18T01:15:15;12.70;99.90
24408;DHT22;12542;50.924;4.516;2023-02-18T01:17:40;12.60;99.90
24408;DHT22;12542;50.924;4.516;2023-02-18T01:20:07;12.60;99.90
24408;DHT22;12542;50.924;4.516;2023-02-18T01:22:33;12.60;99.90
24408;DHT22;12542;50.924;4.516;2023-02-18T01:24:58;12.60;99.90
24408;DHT22;12542;50.924;4.516;2023-02-18T01:27:24;12.70;99.90
24408;DHT22;12542;50.924;4.516;2023-02-18T01:29:50;12.70;99.90
24408;DHT22;12542;50.924;4.516;2023-02-18T01:32:18;12.80;99.90
24408;DHT22;12542;50.924;4.516;2023-02-18T01:34:43;12.80;99.90
24408;DHT22;12542;50.924;4.516;2023-02-18T01:37:09;12.80;99.90
24408;DHT22;12542;50.924;4.516;2023-02-18T01:39:35;12.70;99.90
24408;DHT22;12542;50.924;4.516;2023-02-18T01:42:00;12.60;99.90
24408;DHT22;12542;50.924;4.516;2023-02-18T01:44:27;12.70;99.90
24408;DHT22;12542;50.924;4.516;2023-02-18T01:46:53;12.70;99.90
24408;DHT22;12542;50.924;4.516;2023-02-18T01:49:38;12.70;99.90
24408;DHT22;12542;50.924;4.516;2023-02-18T01:52:24;12.80;99.90
24408;DHT22;12542;50.924;4.516;2023-02-18T01:54:55;12.80;99.90
24408;DHT22;12542;50.924;4.516;2023-02-18T01:57:24;12.80;99.90
24408;DHT22;12542;50.924;4.516;2023-02-18T02:00:00;12.90;99.90
24408;DHT22;12542;50.924;4.516;2023-02-18T02:02:31;12.80;99.90
24408;DHT22;12542;50.924;4.516;2023-02-18T02:04:58;12.80;99.90
24408;DHT22;12542;50.924;4.516;2023-02-18T02:07:25;12.80;99.90
24408;DHT22;12542;50.924;4.516;2023-02-18T02:09:52;12.80;99.90
24408;DHT22;12542;50.924;4.516;2023-02-18T02:20:53;12.60;99.90
24408;DHT22;12542;50.924;4.516;2023-02-18T02:45:09;12.50;99.90
24408;DHT22;12542;50.924;4.516;2023-02-18T02:53:12;12.50;99.90
24408;DHT22;12542;50.924;4.516;2023-02-18T02:55:40;12.40;99.90
24408;DHT22;12542;50.924;4.516;2023-02-18T02:58:05;12.30;99.90
24408;DHT22;12542;50.924;4.516;2023-02-18T03:01:02;12.30;99.90
24408;DHT22;12542;50.924;4.516;2023-02-18T03:06:28;12.30;99.90
24408;DHT22;12542;50.924;4.516;2023-02-18T03:09:16;12.30;99.90
24408;DHT22;12542;50.924;4.516;2023-02-18T03:11:57;12.40;99.90
24408;DHT22;12542;50.924;4.516;2023-02-18T03:17:47;12.40;99.90
24408;DHT22;12542;50.924;4.516;2023-02-18T03:20:38;12.60;99.90
24408;DHT22;12542;50.924;4.516;2023-02-18T03:23:12;12.60;99.90
24408;DHT22;12542;50.924;4.516;2023-02-18T03:25:41;12.50;99.90
24408;DHT22;12542;50.924;4.516;2023-02-18T03:28:27;12.50;99.90
24408;DHT22;12542;50.924;4.516;2023-02-18T03:30:59;12.50;99.90
24408;DHT22;12542;50.924;4.516;2023-02-18T03:33:31;12.60;99.90
24408;DHT22;12542;50.924;4.516;2023-02-18T03:35:58;12.50;99.90
24408;DHT22;12542;50.924;4.516;2023-02-18T03:38:51;12.60;99.90
24408;DHT22;12542;50.924;4.516;2023-02-18T03:41:14;12.60;99.90
24408;DHT22;12542;50.924;4.516;2023-02-18T03:43:48;12.50;99.90
24408;DHT22;12542;50.924;4.516;2023-02-18T03:46:14;12.50;99.90
24408;DHT22;12542;50.924;4.516;2023-02-18T03:48:40;12.40;99.90
24408;DHT22;12542;50.924;4.516;2023-02-18T03:51:05;12.40;99.90
24408;DHT22;12542;50.924;4.516;2023-02-18T03:53:31;12.50;99.90
24408;DHT22;12542;50.924;4.516;2023-02-18T03:55:57;12.40;99.90
24408;DHT22;12542;50.924;4.516;2023-02-18T03:58:22;12.30;99.90
24408;DHT22;12542;50.924;4.516;2023-02-18T04:00:48;12.40;99.90
24408;DHT22;12542;50.924;4.516;2023-02-18T04:03:14;12.40;99.90
24408;DHT22;12542;50.924;4.516;2023-02-18T04:05:39;12.40;99.90
24408;DHT22;12542;50.924;4.516;2023-02-18T04:08:05;12.50;99.90
24408;DHT22;12542;50.924;4.516;2023-02-18T04:10:31;12.40;99.90
24408;DHT22;12542;50.924;4.516;2023-02-18T04:12:57;12.40;99.90
24408;DHT22;12542;50.924;4.516;2023-02-18T04:15:22;12.40;99.90
24408;DHT22;12542;50.924;4.516;2023-02-18T04:17:48;12.40;99.90
24408;DHT22;12542;50.924;4.516;2023-02-18T04:20:14;12.20;99.90
24408;DHT22;12542;50.924;4.516;2023-02-18T04:22:44;12.20;99.90
24408;DHT22;12542;50.924;4.516;2023-02-18T04:25:10;12.30;99.90
24408;DHT22;12542;50.924;4.516;2023-02-18T04:27:38;12.30;99.90
24408;DHT22;12542;50.924;4.516;2023-02-18T04:30:04;12.20;99.90
24408;DHT22;12542;50.924;4.516;2023-02-18T04:32:30;12.10;99.90
24408;DHT22;12542;50.924;4.516;2023-02-18T04:34:55;12.20;99.90
24408;DHT22;12542;50.924;4.516;2023-02-18T04:37:21;12.10;99.90
24408;DHT22;12542;50.924;4.516;2023-02-18T04:39:47;12.20;99.90
24408;DHT22;12542;50.924;4.516;2023-02-18T04:42:12;12.20;99.90
24408;DHT22;12542;50.924;4.516;2023-02-18T04:44:38;12.30;99.90
24408;DHT22;12542;50.924;4.516;2023-02-18T04:47:05;12.20;99.90
24408;DHT22;12542;50.924;4.516;2023-02-18T04:49:33;12.30;99.90
24408;DHT22;12542;50.924;4.516;2023-02-18T04:52:02;12.30;99.90
24408;DHT22;12542;50.924;4.516;2023-02-18T04:54:28;12.20;99.90
24408;DHT22;12542;50.924;4.516;2023-02-18T04:56:54;12.30;99.90
24408;DHT22;12542;50.924;4.516;2023-02-18T04:59:19;12.30;99.90
24408;DHT22;12542;50.924;4.516;2023-02-18T05:01:45;12.20;99.90
24408;DHT22;12542;50.924;4.516;2023-02-18T05:04:11;12.10;99.90
24408;DHT22;12542;50.924;4.516;2023-02-18T05:06:37;12.10;99.90
24408;DHT22;12542;50.924;4.516;2023-02-18T05:09:05;12.10;99.90
24408;DHT22;12542;50.924;4.516;2023-02-18T05:11:31;12.00;99.90
24408;DHT22;12542;50.924;4.516;2023-02-18T05:13:56;12.10;99.90
24408;DHT22;12542;50.924;4.516;2023-02-18T05:16:22;12.00;99.90
24408;DHT22;12542;50.924;4.516;2023-02-18T05:18:48;12.10;99.90
24408;DHT22;12542;50.924;4.516;2023-02-18T05:21:13;12.10;99.90
24408;DHT22;12542;50.924;4.516;2023-02-18T05:23:39;12.20;99.90
24408;DHT22;12542;50.924;4.516;2023-02-18T05:26:07;12.20;99.90
24408;DHT22;12542;50.924;4.516;2023-02-18T05:28:33;12.30;99.90
24408;DHT22;12542;50.924;4.516;2023-02-18T05:30:58;12.20;99.90
24408;DHT22;12542;50.924;4.516;2023-02-18T05:33:24;12.10;99.90
24408;DHT22;12542;50.924;4.516;2023-02-18T05:35:50;12.10;99.90
24408;DHT22;12542;50.924;4.516;2023-02-18T05:38:16;12.20;99.90
24408;DHT22;12542;50.924;4.516;2023-02-18T05:40:44;12.20;99.90
24408;DHT22;12542;50.924;4.516;2023-02-18T05:43:10;12.00;99.90
24408;DHT22;12542;50.924;4.516;2023-02-18T05:45:36;12.00;99.90
24408;DHT22;12542;50.924;4.516;2023-02-18T05:48:02;11.90;99.90
24408;DHT22;12542;50.924;4.516;2023-02-18T05:50:28;11.90;99.90
24408;DHT22;12542;50.924;4.516;2023-02-18T05:52:54;11.80;99.90
24408;DHT22;12542;50.924;4.516;2023-02-18T05:55:21;11.80;99.90
24408;DHT22;12542;50.924;4.516;2023-02-18T05:57:49;11.80;99.90
24408;DHT22;12542;50.924;4.516;2023-02-18T06:00:15;11.80;99.90
24408;DHT22;12542;50.924;4.516;2023-02-18T06:02:41;11.80;99.90
24408;DHT22;12542;50.924;4.516;2023-02-18T06:05:07;11.70;99.90
24408;DHT22;12542;50.924;4.516;2023-02-18T06:07:33;11.80;99.90
24408;DHT22;12542;50.924;4.516;2023-02-18T06:09:59;11.70;99.90
24408;DHT22;12542;50.924;4.516;2023-02-18T06:12:25;11.70;99.90
24408;DHT22;12542;50.924;4.516;2023-02-18T06:14:52;11.60;99.90
24408;DHT22;12542;50.924;4.516;2023-02-18T06:17:18;11.80;99.90
24408;DHT22;12542;50.924;4.516;2023-02-18T06:19:47;11.60;99.90
24408;DHT22;12542;50.924;4.516;2023-02-18T06:22:13;11.70;99.90
24408;DHT22;12542;50.924;4.516;2023-02-18T06:24:39;11.50;99.90
24408;DHT22;12542;50.924;4.516;2023-02-18T06:27:05;11.60;99.90
24408;DHT22;12542;50.924;4.516;2023-02-18T06:29:31;11.40;99.90
24408;DHT22;12542;50.924;4.516;2023-02-18T06:31:57;11.50;99.90
24408;DHT22;12542;50.924;4.516;2023-02-18T06:34:24;11.40;99.90
24408;DHT22;12542;50.924;4.516;2023-02-18T06:36:49;11.40;99.90
24408;DHT22;12542;50.924;4.516;2023-02-18T06:39:15;11.20;99.90
24408;DHT22;12542;50.924;4.516;2023-02-18T06:41:41;11.30;99.90
24408;DHT22;12542;50.924;4.516;2023-02-18T06:44:07;11.40;99.90
24408;DHT22;12542;50.924;4.516;2023-02-18T06:46:33;11.40;99.90
24408;DHT22;12542;50.924;4.516;2023-02-18T06:48:58;11.10;99.90
24408;DHT22;12542;50.924;4.516;2023-02-18T06:51:24;11.20;99.90
24408;DHT22;12542;50.924;4.516;2023-02-18T06:53:52;11.20;99.90
24408;DHT22;12542;50.924;4.516;2023-02-18T06:56:18;11.30;99.90
24408;DHT22;12542;50.924;4.516;2023-02-18T06:58:44;11.30;99.90
24408;DHT22;12542;50.924;4.516;2023-02-18T07:01:10;11.40;99.90
24408;DHT22;12542;50.924;4.516;2023-02-18T07:03:35;11.30;99.90
24408;DHT22;12542;50.924;4.516;2023-02-18T07:06:01;11.30;99.90
24408;DHT22;12542;50.924;4.516;2023-02-18T07:08:29;11.30;99.90
24408;DHT22;12542;50.924;4.516;2023-02-18T07:10:57;11.20;99.90
24408;DHT22;12542;50.924;4.516;2023-02-18T07:13:23;11.20;99.90
24408;DHT22;12542;50.924;4.516;2023-02-18T07:15:49;11.20;99.90
24408;DHT22;12542;50.924;4.516;2023-02-18T07:18:14;11.30;99.90
24408;DHT22;12542;50.924;4.516;2023-02-18T07:20:40;11.30;99.90
24408;DHT22;12542;50.924;4.516;2023-02-18T07:23:06;11.30;99.90
24408;DHT22;12542;50.924;4.516;2023-02-18T07:25:31;11.30;99.90
24408;DHT22;12542;50.924;4.516;2023-02-18T07:27:57;11.30;99.90
24408;DHT22;12542;50.924;4.516;2023-02-18T07:30:22;11.30;99.90
24408;DHT22;12542;50.924;4.516;2023-02-18T07:32:48;11.40;99.90
24408;DHT22;12542;50.924;4.516;2023-02-18T07:35:15;11.40;99.90
24408;DHT22;12542;50.924;4.516;2023-02-18T07:37:45;11.50;99.90
24408;DHT22;12542;50.924;4.516;2023-02-18T07:40:14;11.40;99.90
24408;DHT22;12542;50.924;4.516;2023-02-18T07:42:40;11.40;99.90
24408;DHT22;12542;50.924;4.516;2023-02-18T07:45:07;11.40;99.90
24408;DHT22;12542;50.924;4.516;2023-02-18T07:47:33;11.60;99.90
24408;DHT22;12542;50.924;4.516;2023-02-18T07:49:58;11.60;99.90
24408;DHT22;12542;50.924;4.516;2023-02-18T07:52:24;11.70;99.90
24408;DHT22;12542;50.924;4.516;2023-02-18T07:54:50;11.70;99.90
24408;DHT22;12542;50.924;4.516;2023-02-18T07:57:18;11.70;99.90
24408;DHT22;12542;50.924;4.516;2023-02-18T07:59:44;11.80;99.90
24408;DHT22;12542;50.924;4.516;2023-02-18T08:02:20;11.90;99.90
24408;DHT22;12542;50.924;4.516;2023-02-18T08:04:46;11.90;99.90
24408;DHT22;12542;50.924;4.516;2023-02-18T08:07:13;12.00;99.90
24408;DHT22;12542;50.924;4.516;2023-02-18T08:09:39;12.10;99.90
24408;DHT22;12542;50.924;4.516;2023-02-18T08:12:05;12.00;99.90
24408;DHT22;12542;50.924;4.516;2023-02-18T08:14:31;11.90;99.90
24408;DHT22;12542;50.924;4.516;2023-02-18T08:16:57;12.00;99.90
24408;DHT22;12542;50.924;4.516;2023-02-18T08:19:25;11.90;99.90
24408;DHT22;12542;50.924;4.516;2023-02-18T08:21:50;11.90;99.90
24408;DHT22;12542;50.924;4.516;2023-02-18T08:24:19;11.90;99.90
24408;DHT22;12542;50.924;4.516;2023-02-18T08:26:44;12.00;99.90
24408;DHT22;12542;50.924;4.516;2023-02-18T08:29:10;12.00;99.90
24408;DHT22;12542;50.924;4.516;2023-02-18T08:31:36;12.00;99.90
24408;DHT22;12542;50.924;4.516;2023-02-18T08:34:02;12.20;99.90
24408;DHT22;12542;50.924;4.516;2023-02-18T08:36:29;12.20;99.90
24408;DHT22;12542;50.924;4.516;2023-02-18T08:38:57;12.20;99.90
24408;DHT22;12542;50.924;4.516;2023-02-18T08:41:23;12.20;99.90
24408;DHT22;12542;50.924;4.516;2023-02-18T08:43:49;12.30;99.90
24408;DHT22;12542;50.924;4.516;2023-02-18T08:46:15;12.40;99.90
24408;DHT22;12542;50.924;4.516;2023-02-18T08:48:42;12.30;99.90
24408;DHT22;12542;50.924;4.516;2023-02-18T08:51:12;12.40;99.90
24408;DHT22;12542;50.924;4.516;2023-02-18T08:53:38;12.40;99.90
24408;DHT22;12542;50.924;4.516;2023-02-18T08:56:09;12.50;99.90
24408;DHT22;12542;50.924;4.516;2023-02-18T08:58:39;12.70;99.90
24408;DHT22;12542;50.924;4.516;2023-02-18T09:01:07;12.70;99.90
24408;DHT22;12542;50.924;4.516;2023-02-18T09:03:34;12.80;99.90
24408;DHT22;12542;50.924;4.516;2023-02-18T09:06:00;12.70;99.90
24408;DHT22;12542;50.924;4.516;2023-02-18T09:08:28;12.70;99.90
24408;DHT22;12542;50.924;4.516;2023-02-18T09:10:56;12.80;99.90
24408;DHT22;12542;50.924;4.516;2023-02-18T09:13:22;12.80;99.90
24408;DHT22;12542;50.924;4.516;2023-02-18T09:16:03;12.60;99.90
24408;DHT22;12542;50.924;4.516;2023-02-18T09:18:30;12.50;99.90
24408;DHT22;12542;50.924;4.516;2023-02-18T09:20:58;12.60;99.90
24408;DHT22;12542;50.924;4.516;2023-02-18T09:23:29;12.70;99.90
24408;DHT22;12542;50.924;4.516;2023-02-18T09:25:55;12.80;99.90
24408;DHT22;12542;50.924;4.516;2023-02-18T09:28:21;12.70;99.90
24408;DHT22;12542;50.924;4.516;2023-02-18T09:30:47;12.80;99.90
24408;DHT22;12542;50.924;4.516;2023-02-18T09:33:13;12.80;99.90
24408;DHT22;12542;50.924;4.516;2023-02-18T09:35:43;12.90;99.90
24408;DHT22;12542;50.924;4.516;2023-02-18T09:38:11;12.80;99.90
24408;DHT22;12542;50.924;4.516;2023-02-18T09:40:41;12.80;99.90
24408;DHT22;12542;50.924;4.516;2023-02-18T09:43:22;12.90;99.90
24408;DHT22;12542;50.924;4.516;2023-02-18T09:45:50;12.90;99.90
24408;DHT22;12542;50.924;4.516;2023-02-18T09:48:16;13.00;99.90
24408;DHT22;12542;50.924;4.516;2023-02-18T09:50:42;13.00;99.90
24408;DHT22;12542;50.924;4.516;2023-02-18T09:53:15;12.90;99.90
24408;DHT22;12542;50.924;4.516;2023-02-18T09:55:42;13.10;99.90
24408;DHT22;12542;50.924;4.516;2023-02-18T09:58:22;13.00;99.90
24408;DHT22;12542;50.924;4.516;2023-02-18T10:01:05;13.00;99.90
24408;DHT22;12542;50.924;4.516;2023-02-18T10:03:35;13.10;99.90
24408;DHT22;12542;50.924;4.516;2023-02-18T10:06:06;13.00;99.90
24408;DHT22;12542;50.924;4.516;2023-02-18T10:08:39;13.00;99.90
24408;DHT22;12542;50.924;4.516;2023-02-18T10:11:14;13.00;99.90
24408;DHT22;12542;50.924;4.516;2023-02-18T10:13:42;13.00;99.90
24408;DHT22;12542;50.924;4.516;2023-02-18T10:16:08;13.10;99.90
24408;DHT22;12542;50.924;4.516;2023-02-18T10:18:42;13.00;99.90
24408;DHT22;12542;50.924;4.516;2023-02-18T10:21:13;13.10;99.90
24408;DHT22;12542;50.924;4.516;2023-02-18T10:23:54;13.20;99.90
24408;DHT22;12542;50.924;4.516;2023-02-18T10:26:23;13.40;99.90
24408;DHT22;12542;50.924;4.516;2023-02-18T10:28:49;13.30;99.90
24408;DHT22;12542;50.924;4.516;2023-02-18T10:31:27;13.30;99.90
24408;DHT22;12542;50.924;4.516;2023-02-18T10:40:20;13.40;99.90
24408;DHT22;12542;50.924;4.516;2023-02-18T10:47:15;13.40;99.90
24408;DHT22;12542;50.924;4.516;2023-02-18T10:51:57;13.40;99.90
24408;DHT22;12542;50.924;4.516;2023-02-18T10:54:26;13.50;99.90
24408;DHT22;12542;50.924;4.516;2023-02-18T10:56:58;13.50;99.90
24408;DHT22;12542;50.924;4.516;2023-02-18T10:59:31;13.50;99.90
24408;DHT22;12542;50.924;4.516;2023-02-18T11:02:01;13.50;99.90
24408;DHT22;12542;50.924;4.516;2023-02-18T11:04:34;13.60;99.90
24408;DHT22;12542;50.924;4.516;2023-02-18T11:07:20;13.50;99.90
24408;DHT22;12542;50.924;4.516;2023-02-18T11:09:51;13.50;99.90
24408;DHT22;12542;50.924;4.516;2023-02-18T11:12:32;13.50;99.90
24408;DHT22;12542;50.924;4.516;2023-02-18T11:17:34;13.30;99.90
24408;DHT22;12542;50.924;4.516;2023-02-18T11:22:50;13.30;99.90
24408;DHT22;12542;50.924;4.516;2023-02-18T11:25:27;13.20;99.90
24408;DHT22;12542;50.924;4.516;2023-02-18T11:28:02;13.20;99.90
24408;DHT22;12542;50.924;4.516;2023-02-18T11:30:47;13.30;99.90
24408;DHT22;12542;50.924;4.516;2023-02-18T11:33:20;13.30;99.90
24408;DHT22;12542;50.924;4.516;2023-02-18T11:35:54;13.20;99.90
24408;DHT22;12542;50.924;4.516;2023-02-18T11:38:45;13.10;99.90
24408;DHT22;12542;50.924;4.516;2023-02-18T11:41:18;13.10;99.90
24408;DHT22;12542;50.924;4.516;2023-02-18T11:43:48;13.20;99.90
24408;DHT22;12542;50.924;4.516;2023-02-18T11:46:22;13.20;99.90
24408;DHT22;12542;50.924;4.516;2023-02-18T11:48:51;13.10;99.90
24408;DHT22;12542;50.924;4.516;2023-02-18T11:51:36;13.10;99.90
24408;DHT22;12542;50.924;4.516;2023-02-18T11:57:03;13.20;99.90
24408;DHT22;12542;50.924;4.516;2023-02-18T11:59:33;13.30;99.90
24408;DHT22;12542;50.924;4.516;2023-02-18T12:02:21;13.40;99.90
24408;DHT22;12542;50.924;4.516;2023-02-18T12:05:04;13.50;99.90
24408;DHT22;12542;50.924;4.516;2023-02-18T12:07:45;13.40;99.90
24408;DHT22;12542;50.924;4.516;2023-02-18T12:12:47;13.30;99.90
24408;DHT22;12542;50.924;4.516;2023-02-18T12:15:25;13.30;99.90
24408;DHT22;12542;50.924;4.516;2023-02-18T12:20:58;13.50;99.90
24408;DHT22;12542;50.924;4.516;2023-02-18T12:23:41;13.50;99.90
24408;DHT22;12542;50.924;4.516;2023-02-18T12:26:28;13.60;99.90
24408;DHT22;12542;50.924;4.516;2023-02-18T12:34:46;13.80;99.90
24408;DHT22;12542;50.924;4.516;2023-02-18T12:43:25;13.70;99.90
24408;DHT22;12542;50.924;4.516;2023-02-18T12:52:06;13.50;99.90
24408;DHT22;12542;50.924;4.516;2023-02-18T12:57:54;13.50;99.90
24408;DHT22;12542;50.924;4.516;2023-02-18T13:11:35;13.40;99.90
24408;DHT22;12542;50.924;4.516;2023-02-18T13:16:37;13.30;99.90
24408;DHT22;12542;50.924;4.516;2023-02-18T13:21:40;13.20;99.90
24408;DHT22;12542;50.924;4.516;2023-02-18T13:24:12;13.30;99.90
24408;DHT22;12542;50.924;4.516;2023-02-18T13:26:39;13.20;99.90
24408;DHT22;12542;50.924;4.516;2023-02-18T13:29:36;13.10;99.90
24408;DHT22;12542;50.924;4.516;2023-02-18T13:32:35;13.10;99.90
24408;DHT22;12542;50.924;4.516;2023-02-18T13:35:15;13.20;99.90
24408;DHT22;12542;50.924;4.516;2023-02-18T13:40:30;13.30;99.90
24408;DHT22;12542;50.924;4.516;2023-02-18T13:43:16;13.30;99.90
24408;DHT22;12542;50.924;4.516;2023-02-18T13:45:42;13.50;99.90
24408;DHT22;12542;50.924;4.516;2023-02-18T13:48:27;13.30;99.90
24408;DHT22;12542;50.924;4.516;2023-02-18T13:50:53;13.40;99.90
24408;DHT22;12542;50.924;4.516;2023-02-18T13:53:25;13.40;99.90
24408;DHT22;12542;50.924;4.516;2023-02-18T13:56:06;13.40;99.90
24408;DHT22;12542;50.924;4.516;2023-02-18T13:58:38;13.30;99.90
24408;DHT22;12542;50.924;4.516;2023-02-18T14:01:19;13.10;99.90
24408;DHT22;12542;50.924;4.516;2023-02-18T14:08:46;13.20;99.90
24408;DHT22;12542;50.924;4.516;2023-02-18T14:16:09;13.10;99.90
24408;DHT22;12542;50.924;4.516;2023-02-18T14:23:58;13.00;99.90
24408;DHT22;12542;50.924;4.516;2023-02-18T14:26:30;12.90;99.90
24408;DHT22;12542;50.924;4.516;2023-02-18T14:29:10;12.90;99.90
24408;DHT22;12542;50.924;4.516;2023-02-18T14:31:42;13.00;99.90
24408;DHT22;12542;50.924;4.516;2023-02-18T14:34:18;12.90;99.90
24408;DHT22;12542;50.924;4.516;2023-02-18T14:39:40;12.90;99.90
24408;DHT22;12542;50.924;4.516;2023-02-18T14:50:43;12.90;99.90
24408;DHT22;12542;50.924;4.516;2023-02-18T14:53:18;12.80;99.90
24408;DHT22;12542;50.924;4.516;2023-02-18T14:55:47;13.10;99.90
24408;DHT22;12542;50.924;4.516;2023-02-18T14:58:33;13.20;99.90
24408;DHT22;12542;50.924;4.516;2023-02-18T15:01:22;13.20;99.90
24408;DHT22;12542;50.924;4.516;2023-02-18T15:03:50;13.30;99.90
24408;DHT22;12542;50.924;4.516;2023-02-18T15:09:02;13.20;99.90
24408;DHT22;12542;50.924;4.516;2023-02-18T15:11:39;13.10;99.90
24408;DHT22;12542;50.924;4.516;2023-02-18T15:14:15;13.00;99.90
24408;DHT22;12542;50.924;4.516;2023-02-18T15:16:46;13.10;99.90
24408;DHT22;12542;50.924;4.516;2023-02-18T15:19:15;13.10;99.90
24408;DHT22;12542;50.924;4.516;2023-02-18T15:21:48;13.00;99.90
24408;DHT22;12542;50.924;4.516;2023-02-18T15:24:35;13.10;99.90
24408;DHT22;12542;50.924;4.516;2023-02-18T15:27:10;13.20;99.90
24408;DHT22;12542;50.924;4.516;2023-02-18T15:29:37;13.10;99.90
24408;DHT22;12542;50.924;4.516;2023-02-18T15:34:43;13.10;99.90
24408;DHT22;12542;50.924;4.516;2023-02-18T15:37:13;13.00;99.90
24408;DHT22;12542;50.924;4.516;2023-02-18T15:39:40;13.00;99.90
24408;DHT22;12542;50.924;4.516;2023-02-18T15:42:27;13.10;99.90
24408;DHT22;12542;50.924;4.516;2023-02-18T15:45:02;13.10;99.90
24408;DHT22;12542;50.924;4.516;2023-02-18T15:47:29;13.20;99.90
24408;DHT22;12542;50.924;4.516;2023-02-18T15:49:58;13.20;99.90
24408;DHT22;12542;50.924;4.516;2023-02-18T15:52:27;13.20;99.90
24408;DHT22;12542;50.924;4.516;2023-02-18T15:54:54;13.20;99.90
24408;DHT22;12542;50.924;4.516;2023-02-18T15:57:26;13.20;99.90
24408;DHT22;12542;50.924;4.516;2023-02-18T15:59:58;13.10;99.90
24408;DHT22;12542;50.924;4.516;2023-02-18T16:02:28;13.10;99.90
24408;DHT22;12542;50.924;4.516;2023-02-18T16:04:58;13.10;99.90
24408;DHT22;12542;50.924;4.516;2023-02-18T16:07:36;13.00;99.90
24408;DHT22;12542;50.924;4.516;2023-02-18T16:10:22;12.90;99.90
24408;DHT22;12542;50.924;4.516;2023-02-18T16:12:54;12.90;99.90
24408;DHT22;12542;50.924;4.516;2023-02-18T16:15:36;13.00;99.90
24408;DHT22;12542;50.924;4.516;2023-02-18T16:18:03;13.10;99.90
24408;DHT22;12542;50.924;4.516;2023-02-18T16:20:34;13.10;99.90
24408;DHT22;12542;50.924;4.516;2023-02-18T16:23:11;13.10;99.90
24408;DHT22;12542;50.924;4.516;2023-02-18T16:25:43;13.10;99.90
24408;DHT22;12542;50.924;4.516;2023-02-18T16:28:22;13.20;99.90
24408;DHT22;12542;50.924;4.516;2023-02-18T16:30:48;13.20;99.90
24408;DHT22;12542;50.924;4.516;2023-02-18T16:33:13;13.20;99.90
24408;DHT22;12542;50.924;4.516;2023-02-18T16:35:40;13.20;99.90
24408;DHT22;12542;50.924;4.516;2023-02-18T16:38:18;13.20;99.90
24408;DHT22;12542;50.924;4.516;2023-02-18T16:40:44;13.20;99.90
24408;DHT22;12542;50.924;4.516;2023-02-18T16:43:11;13.20;99.90
24408;DHT22;12542;50.924;4.516;2023-02-18T16:45:43;13.20;99.90
24408;DHT22;12542;50.924;4.516;2023-02-18T16:48:32;13.20;99.90
24408;DHT22;12542;50.924;4.516;2023-02-18T16:51:08;13.00;99.90
24408;DHT22;12542;50.924;4.516;2023-02-18T16:53:35;13.10;99.90
24408;DHT22;12542;50.924;4.516;2023-02-18T16:56:01;13.00;99.90
24408;DHT22;12542;50.924;4.516;2023-02-18T16:58:27;13.00;99.90
24408;DHT22;12542;50.924;4.516;2023-02-18T17:00:53;13.00;99.90
24408;DHT22;12542;50.924;4.516;2023-02-18T17:03:20;13.10;99.90
24408;DHT22;12542;50.924;4.516;2023-02-18T17:05:46;13.00;99.90
24408;DHT22;12542;50.924;4.516;2023-02-18T17:08:23;13.10;99.90
24408;DHT22;12542;50.924;4.516;2023-02-18T17:10:56;13.00;99.90
24408;DHT22;12542;50.924;4.516;2023-02-18T17:13:25;13.00;99.90
24408;DHT22;12542;50.924;4.516;2023-02-18T17:15:53;13.00;99.90
24408;DHT22;12542;50.924;4.516;2023-02-18T17:18:19;13.10;99.90
24408;DHT22;12542;50.924;4.516;2023-02-18T17:20:47;13.00;99.90
24408;DHT22;12542;50.924;4.516;2023-02-18T17:23:23;13.00;99.90
24408;DHT22;12542;50.924;4.516;2023-02-18T17:25:50;13.00;99.90
24408;DHT22;12542;50.924;4.516;2023-02-18T17:28:17;13.00;99.90
24408;DHT22;12542;50.924;4.516;2023-02-18T17:30:46;13.00;99.90
24408;DHT22;12542;50.924;4.516;2023-02-18T17:33:15;13.00;99.90
24408;DHT22;12542;50.924;4.516;2023-02-18T17:35:41;13.10;99.90
24408;DHT22;12542;50.924;4.516;2023-02-18T17:38:12;13.00;99.90
24408;DHT22;12542;50.924;4.516;2023-02-18T17:40:38;13.00;99.90
24408;DHT22;12542;50.924;4.516;2023-02-18T17:43:04;13.00;99.90
24408;DHT22;12542;50.924;4.516;2023-02-18T17:45:34;12.90;99.90
24408;DHT22;12542;50.924;4.516;2023-02-18T17:48:01;12.90;99.90
24408;DHT22;12542;50.924;4.516;2023-02-18T17:50:30;13.00;99.90
24408;DHT22;12542;50.924;4.516;2023-02-18T17:52:57;13.00;99.90
24408;DHT22;12542;50.924;4.516;2023-02-18T17:55:27;13.10;99.90
24408;DHT22;12542;50.924;4.516;2023-02-18T17:57:53;13.00;99.90
24408;DHT22;12542;50.924;4.516;2023-02-18T18:00:30;13.00;99.90
24408;DHT22;12542;50.924;4.516;2023-02-18T18:02:57;13.00;99.90
24408;DHT22;12542;50.924;4.516;2023-02-18T18:05:25;12.90;99.90
24408;DHT22;12542;50.924;4.516;2023-02-18T18:07:51;12.80;99.90